EZY8605 LFPG-LEBL
Flight info
| Callsign | EZY8605 |
|---|---|
| Flight time | 1h 28m |
| Altitude | 37000 |
| Route | ERIXU DCT ETAMO DCT VALKU DCT ATSUP DCT MINSO DCT DEGOL DCT PPG DCT ALBER |
| Aircraft | A320/M-SDE3FGHIRWY/LB1 |
Departure
| Time | 2026-05-04 20:50 |
|---|---|
| Airport | Charles de Gaulle International Airport (LFPG) |
Arrival
| Time | 2026-05-04 22:19 |
|---|---|
| Airport | Josep Tarradellas Barcelona-El Prat Airport (LEBL) |
| Time | Latitude | Longitude | Altitude | Speed | Heading |
|---|---|---|---|---|---|
| 2026-05-04 20:17 | 49.00514 | 2.56107 | 326 ft | 0 kts | 168° |
| 2026-05-04 20:40 | 49.00524 | 2.56104 | 362 ft | 4 kts | 166° |
| 2026-05-04 20:40 | 49.00550 | 2.56093 | 360 ft | 4 kts | 159° |
| 2026-05-04 20:40 | 49.00575 | 2.56077 | 363 ft | 4 kts | 152° |
| 2026-05-04 20:40 | 49.00580 | 2.56072 | 363 ft | 0 kts | 149° |
| 2026-05-04 20:41 | 49.00587 | 2.56066 | 363 ft | 2 kts | 161° |
| 2026-05-04 20:41 | 49.00604 | 2.56058 | 361 ft | 3 kts | 179° |
| 2026-05-04 20:41 | 49.00621 | 2.56062 | 361 ft | 3 kts | 215° |
| 2026-05-04 20:42 | 49.00633 | 2.56081 | 357 ft | 3 kts | 251° |
| 2026-05-04 20:42 | 49.00636 | 2.56107 | 356 ft | 2 kts | 276° |
| 2026-05-04 20:42 | 49.00634 | 2.56133 | 360 ft | 3 kts | 270° |
| 2026-05-04 20:42 | 49.00634 | 2.56142 | 360 ft | 0 kts | 263° |
| 2026-05-04 20:45 | 49.00630 | 2.56115 | 356 ft | 7 kts | 258° |
| 2026-05-04 20:45 | 49.00608 | 2.56023 | 357 ft | 11 kts | 234° |
| 2026-05-04 20:46 | 49.00572 | 2.55907 | 356 ft | 13 kts | 263° |
| 2026-05-04 20:46 | 49.00561 | 2.55751 | 360 ft | 17 kts | 266° |
| 2026-05-04 20:46 | 49.00552 | 2.55555 | 358 ft | 19 kts | 266° |
| 2026-05-04 20:46 | 49.00509 | 2.55362 | 355 ft | 20 kts | 217° |
| 2026-05-04 20:47 | 49.00373 | 2.55363 | 353 ft | 21 kts | 164° |
| 2026-05-04 20:47 | 49.00226 | 2.55426 | 353 ft | 24 kts | 164° |
| 2026-05-04 20:47 | 49.00060 | 2.55497 | 357 ft | 25 kts | 164° |
| 2026-05-04 20:47 | 48.99906 | 2.55581 | 358 ft | 20 kts | 143° |
| 2026-05-04 20:48 | 48.99827 | 2.55760 | 359 ft | 20 kts | 118° |
| 2026-05-04 20:48 | 48.99725 | 2.55811 | 354 ft | 11 kts | 175° |
| 2026-05-04 20:48 | 48.99710 | 2.55813 | 354 ft | 0 kts | 175° |
| 2026-05-04 20:48 | 48.99686 | 2.55816 | 359 ft | 10 kts | 175° |
| 2026-05-04 20:49 | 48.99607 | 2.55881 | 357 ft | 16 kts | 108° |
| 2026-05-04 20:49 | 48.99606 | 2.55944 | 354 ft | 0 kts | 86° |
| 2026-05-04 20:49 | 48.99606 | 2.55948 | 354 ft | 7 kts | 86° |
| 2026-05-04 20:49 | 48.99636 | 2.56469 | 356 ft | 87 kts | 85° |
| 2026-05-04 20:50 | 48.99704 | 2.57710 | 359 ft | 145 kts | 85° |
| 2026-05-04 20:50 | 48.99780 | 2.59462 | 507 ft | 177 kts | 88° |
| 2026-05-04 20:50 | 48.99842 | 2.61332 | 1290 ft | 176 kts | 85° |
| 2026-05-04 20:50 | 48.99940 | 2.63196 | 2009 ft | 181 kts | 83° |
| 2026-05-04 20:51 | 49.00074 | 2.65213 | 2370 ft | 204 kts | 83° |
| 2026-05-04 20:51 | 49.00219 | 2.67520 | 2725 ft | 232 kts | 84° |
| 2026-05-04 20:51 | 49.00357 | 2.70092 | 3273 ft | 255 kts | 85° |
| 2026-05-04 20:51 | 49.00490 | 2.72859 | 4076 ft | 264 kts | 85° |
| 2026-05-04 20:52 | 49.00625 | 2.75644 | 5155 ft | 264 kts | 85° |
| 2026-05-04 20:52 | 49.00686 | 2.78458 | 6109 ft | 267 kts | 97° |
| 2026-05-04 20:52 | 49.00407 | 2.81270 | 7042 ft | 271 kts | 99° |
| 2026-05-04 20:52 | 49.00101 | 2.84126 | 7931 ft | 275 kts | 99° |
| 2026-05-04 20:53 | 48.99786 | 2.87028 | 8851 ft | 279 kts | 99° |
| 2026-05-04 20:53 | 48.99467 | 2.89956 | 9767 ft | 283 kts | 99° |
| 2026-05-04 20:53 | 48.99142 | 2.92973 | 10357 ft | 298 kts | 99° |
| 2026-05-04 20:53 | 48.98778 | 2.96192 | 10727 ft | 318 kts | 103° |
| 2026-05-04 20:54 | 48.97917 | 2.99284 | 11380 ft | 326 kts | 124° |
| 2026-05-04 20:54 | 48.96347 | 3.01785 | 12142 ft | 332 kts | 144° |
| 2026-05-04 20:54 | 48.94245 | 3.03258 | 12922 ft | 337 kts | 167° |
| 2026-05-04 20:54 | 48.91900 | 3.03416 | 13697 ft | 342 kts | 189° |
| 2026-05-04 20:55 | 48.89665 | 3.02188 | 14382 ft | 346 kts | 212° |
| 2026-05-04 20:55 | 48.87891 | 2.99728 | 15077 ft | 350 kts | 234° |
| 2026-05-04 20:55 | 48.86866 | 2.96405 | 15764 ft | 354 kts | 256° |
| 2026-05-04 20:55 | 48.86492 | 2.92665 | 16475 ft | 357 kts | 262° |
| 2026-05-04 20:56 | 48.86182 | 2.88913 | 17194 ft | 360 kts | 262° |
| 2026-05-04 20:56 | 48.85876 | 2.85136 | 17896 ft | 363 kts | 262° |
| 2026-05-04 20:56 | 48.85564 | 2.81322 | 18538 ft | 366 kts | 262° |
| 2026-05-04 20:56 | 48.85244 | 2.77464 | 18860 ft | 368 kts | 262° |
| 2026-05-04 20:57 | 48.84919 | 2.73602 | 18966 ft | 368 kts | 262° |
| 2026-05-04 20:57 | 48.84591 | 2.69754 | 18961 ft | 368 kts | 262° |
| 2026-05-04 20:57 | 48.84228 | 2.65903 | 18962 ft | 368 kts | 257° |
| 2026-05-04 20:57 | 48.83488 | 2.62203 | 18970 ft | 367 kts | 246° |
| 2026-05-04 20:58 | 48.82299 | 2.58790 | 18965 ft | 366 kts | 236° |
| 2026-05-04 20:58 | 48.80830 | 2.55634 | 18971 ft | 366 kts | 234° |
| 2026-05-04 20:58 | 48.79355 | 2.52488 | 18974 ft | 366 kts | 234° |
| 2026-05-04 20:58 | 48.77875 | 2.49336 | 19162 ft | 369 kts | 234° |
| 2026-05-04 20:59 | 48.76381 | 2.46158 | 19815 ft | 371 kts | 234° |
| 2026-05-04 20:59 | 48.74880 | 2.42962 | 20431 ft | 373 kts | 233° |
| 2026-05-04 20:59 | 48.73223 | 2.39920 | 21021 ft | 375 kts | 224° |
| 2026-05-04 20:59 | 48.71223 | 2.37378 | 21599 ft | 377 kts | 213° |
| 2026-05-04 21:00 | 48.68981 | 2.35310 | 22181 ft | 379 kts | 210° |
| 2026-05-04 21:00 | 48.66708 | 2.33278 | 22748 ft | 381 kts | 210° |
| 2026-05-04 21:00 | 48.64420 | 2.31228 | 23334 ft | 383 kts | 210° |
| 2026-05-04 21:00 | 48.62127 | 2.29171 | 23885 ft | 383 kts | 210° |
| 2026-05-04 21:01 | 48.59830 | 2.27110 | 24382 ft | 384 kts | 210° |
| 2026-05-04 21:01 | 48.57531 | 2.25050 | 24863 ft | 385 kts | 210° |
| 2026-05-04 21:01 | 48.55214 | 2.22974 | 25287 ft | 388 kts | 210° |
| 2026-05-04 21:01 | 48.52807 | 2.21109 | 25719 ft | 390 kts | 201° |
| 2026-05-04 21:02 | 48.50212 | 2.19926 | 26161 ft | 391 kts | 191° |
| 2026-05-04 21:02 | 48.47542 | 2.19479 | 26606 ft | 392 kts | 181° |
| 2026-05-04 21:02 | 48.44774 | 2.19646 | 27057 ft | 394 kts | 178° |
| 2026-05-04 21:02 | 48.42039 | 2.19877 | 27510 ft | 395 kts | 178° |
| 2026-05-04 21:03 | 48.39282 | 2.20109 | 27947 ft | 397 kts | 178° |
| 2026-05-04 21:03 | 48.36518 | 2.20341 | 28378 ft | 398 kts | 178° |
| 2026-05-04 21:03 | 48.33747 | 2.20570 | 28809 ft | 400 kts | 178° |
| 2026-05-04 21:03 | 48.30962 | 2.20799 | 29231 ft | 401 kts | 178° |
| 2026-05-04 21:04 | 48.28172 | 2.21165 | 29635 ft | 404 kts | 172° |
| 2026-05-04 21:04 | 48.25396 | 2.21842 | 30024 ft | 406 kts | 172° |
| 2026-05-04 21:04 | 48.22640 | 2.22512 | 30360 ft | 407 kts | 172° |
| 2026-05-04 21:04 | 48.19842 | 2.23191 | 30700 ft | 408 kts | 173° |
| 2026-05-04 21:05 | 48.17032 | 2.23873 | 31042 ft | 409 kts | 173° |
| 2026-05-04 21:05 | 48.14220 | 2.24556 | 31374 ft | 410 kts | 173° |
| 2026-05-04 21:05 | 48.11400 | 2.25238 | 31698 ft | 411 kts | 173° |
| 2026-05-04 21:05 | 48.08572 | 2.25894 | 32020 ft | 411 kts | 176° |
| 2026-05-04 21:06 | 48.05715 | 2.26148 | 32306 ft | 411 kts | 180° |
| 2026-05-04 21:06 | 48.02855 | 2.26322 | 32658 ft | 411 kts | 180° |
| 2026-05-04 21:06 | 48.00003 | 2.26501 | 33084 ft | 409 kts | 180° |
| 2026-05-04 21:06 | 47.97163 | 2.26681 | 33528 ft | 407 kts | 181° |
| 2026-05-04 21:07 | 47.94341 | 2.26863 | 33970 ft | 405 kts | 181° |
| 2026-05-04 21:07 | 47.91535 | 2.27046 | 34307 ft | 404 kts | 181° |
| 2026-05-04 21:07 | 47.88727 | 2.27226 | 34578 ft | 405 kts | 181° |
| 2026-05-04 21:07 | 47.85900 | 2.27402 | 34812 ft | 406 kts | 180° |
| 2026-05-04 21:08 | 47.83075 | 2.27579 | 35032 ft | 408 kts | 180° |
| 2026-05-04 21:08 | 47.80232 | 2.27758 | 35252 ft | 409 kts | 180° |
| 2026-05-04 21:08 | 47.77382 | 2.27940 | 35463 ft | 411 kts | 180° |
| 2026-05-04 21:08 | 47.74517 | 2.28123 | 35663 ft | 412 kts | 180° |
| 2026-05-04 21:09 | 47.71681 | 2.28303 | 35875 ft | 414 kts | 180° |
| 2026-05-04 21:09 | 47.68796 | 2.28485 | 36076 ft | 415 kts | 180° |
| 2026-05-04 21:09 | 47.65904 | 2.28667 | 36277 ft | 417 kts | 180° |
| 2026-05-04 21:09 | 47.63010 | 2.28850 | 36471 ft | 418 kts | 180° |
| 2026-05-04 21:10 | 47.60093 | 2.29036 | 36662 ft | 419 kts | 179° |
| 2026-05-04 21:10 | 47.57174 | 2.29219 | 36849 ft | 421 kts | 179° |
| 2026-05-04 21:10 | 47.51298 | 2.29583 | 36928 ft | 423 kts | 179° |
| 2026-05-04 21:11 | 47.45413 | 2.29944 | 36914 ft | 423 kts | 179° |
| 2026-05-04 21:11 | 47.39528 | 2.30318 | 36917 ft | 423 kts | 179° |
| 2026-05-04 21:12 | 47.33639 | 2.30692 | 36914 ft | 423 kts | 179° |
| 2026-05-04 21:12 | 47.27754 | 2.31055 | 36919 ft | 424 kts | 179° |
| 2026-05-04 21:13 | 47.21860 | 2.31420 | 36925 ft | 424 kts | 179° |
| 2026-05-04 21:13 | 47.15950 | 2.31785 | 36931 ft | 424 kts | 179° |
| 2026-05-04 21:14 | 47.10045 | 2.32150 | 36934 ft | 425 kts | 179° |
| 2026-05-04 21:14 | 47.04136 | 2.32516 | 36938 ft | 425 kts | 179° |
| 2026-05-04 21:15 | 46.98229 | 2.32879 | 36934 ft | 425 kts | 179° |
| 2026-05-04 21:15 | 46.92318 | 2.33240 | 36935 ft | 425 kts | 179° |
| 2026-05-04 21:16 | 46.86447 | 2.33619 | 36932 ft | 425 kts | 177° |
| 2026-05-04 21:16 | 46.80679 | 2.35683 | 36924 ft | 431 kts | 161° |
| 2026-05-04 21:17 | 46.75114 | 2.38923 | 36922 ft | 431 kts | 161° |
| 2026-05-04 21:17 | 46.69532 | 2.42139 | 36918 ft | 431 kts | 161° |
| 2026-05-04 21:18 | 46.63949 | 2.45352 | 36918 ft | 431 kts | 161° |
| 2026-05-04 21:18 | 46.58367 | 2.48557 | 36924 ft | 431 kts | 162° |
| 2026-05-04 21:19 | 46.52792 | 2.51754 | 36925 ft | 431 kts | 162° |
| 2026-05-04 21:19 | 46.48157 | 2.54405 | 36922 ft | 431 kts | 162° |
| 2026-05-04 21:20 | 46.41674 | 2.58115 | 36921 ft | 431 kts | 162° |
| 2026-05-04 21:20 | 46.36098 | 2.61296 | 36922 ft | 431 kts | 162° |
| 2026-05-04 21:21 | 46.31427 | 2.63946 | 36926 ft | 430 kts | 162° |
| 2026-05-04 21:21 | 46.25886 | 2.67086 | 36926 ft | 430 kts | 162° |
| 2026-05-04 21:22 | 46.20320 | 2.70246 | 36923 ft | 430 kts | 162° |
| 2026-05-04 21:22 | 46.14751 | 2.73396 | 36924 ft | 430 kts | 162° |
| 2026-05-04 21:23 | 46.09178 | 2.76537 | 36923 ft | 430 kts | 162° |
| 2026-05-04 21:23 | 46.03606 | 2.79675 | 36926 ft | 430 kts | 162° |
| 2026-05-04 21:24 | 45.98036 | 2.82797 | 36931 ft | 429 kts | 163° |
| 2026-05-04 21:24 | 45.92440 | 2.85774 | 36936 ft | 429 kts | 163° |
| 2026-05-04 21:25 | 45.86827 | 2.88680 | 36940 ft | 428 kts | 163° |
| 2026-05-04 21:25 | 45.81231 | 2.91600 | 36944 ft | 428 kts | 163° |
| 2026-05-04 21:26 | 45.75653 | 2.94392 | 36939 ft | 425 kts | 169° |
| 2026-05-04 21:26 | 45.69842 | 2.95173 | 36941 ft | 418 kts | 184° |
| 2026-05-04 21:27 | 45.64022 | 2.94996 | 36936 ft | 418 kts | 184° |
| 2026-05-04 21:27 | 45.58207 | 2.94832 | 36935 ft | 418 kts | 183° |
| 2026-05-04 21:28 | 45.52388 | 2.94682 | 36940 ft | 418 kts | 183° |
| 2026-05-04 21:28 | 45.46573 | 2.94540 | 36947 ft | 418 kts | 183° |
| 2026-05-04 21:29 | 45.40755 | 2.94388 | 36943 ft | 418 kts | 184° |
| 2026-05-04 21:29 | 45.34945 | 2.94233 | 36949 ft | 418 kts | 183° |
| 2026-05-04 21:30 | 45.29124 | 2.94083 | 36957 ft | 418 kts | 183° |
| 2026-05-04 21:30 | 45.23349 | 2.93927 | 36963 ft | 418 kts | 184° |
| 2026-05-04 21:31 | 45.14639 | 2.93693 | 36957 ft | 417 kts | 184° |
| 2026-05-04 21:32 | 45.08844 | 2.93552 | 36965 ft | 417 kts | 183° |
| 2026-05-04 21:32 | 45.03047 | 2.93398 | 36960 ft | 417 kts | 184° |
| 2026-05-04 21:33 | 44.97251 | 2.93244 | 36956 ft | 417 kts | 184° |
| 2026-05-04 21:33 | 44.91448 | 2.93107 | 36965 ft | 417 kts | 183° |
| 2026-05-04 21:34 | 44.85642 | 2.92957 | 36968 ft | 417 kts | 184° |
| 2026-05-04 21:34 | 44.79855 | 2.92666 | 36965 ft | 416 kts | 185° |
| 2026-05-04 21:35 | 44.74082 | 2.92185 | 36970 ft | 416 kts | 186° |
| 2026-05-04 21:35 | 44.68309 | 2.91703 | 36968 ft | 416 kts | 185° |
| 2026-05-04 21:36 | 44.62525 | 2.91272 | 36965 ft | 416 kts | 185° |
| 2026-05-04 21:36 | 44.56749 | 2.90866 | 36964 ft | 416 kts | 185° |
| 2026-05-04 21:37 | 44.50973 | 2.90451 | 36966 ft | 415 kts | 185° |
| 2026-05-04 21:37 | 44.45202 | 2.90034 | 36961 ft | 416 kts | 185° |
| 2026-05-04 21:38 | 44.39423 | 2.89622 | 36961 ft | 415 kts | 185° |
| 2026-05-04 21:38 | 44.33686 | 2.89203 | 36961 ft | 415 kts | 185° |
| 2026-05-04 21:39 | 44.27914 | 2.88780 | 36960 ft | 416 kts | 186° |
| 2026-05-04 21:39 | 44.22098 | 2.88356 | 36958 ft | 416 kts | 186° |
| 2026-05-04 21:40 | 44.16362 | 2.87943 | 36958 ft | 416 kts | 186° |
| 2026-05-04 21:40 | 44.10583 | 2.87527 | 36956 ft | 416 kts | 186° |
| 2026-05-04 21:41 | 44.04798 | 2.87116 | 36951 ft | 416 kts | 186° |
| 2026-05-04 21:41 | 43.99014 | 2.86712 | 36950 ft | 416 kts | 186° |
| 2026-05-04 21:42 | 43.93234 | 2.86307 | 36946 ft | 416 kts | 186° |
| 2026-05-04 21:42 | 43.87445 | 2.85888 | 36949 ft | 416 kts | 186° |
| 2026-05-04 21:43 | 43.81657 | 2.85466 | 36951 ft | 416 kts | 186° |
| 2026-05-04 21:43 | 43.75863 | 2.85119 | 36951 ft | 417 kts | 184° |
| 2026-05-04 21:44 | 43.70042 | 2.85173 | 36954 ft | 419 kts | 182° |
| 2026-05-04 21:44 | 43.64216 | 2.85389 | 36957 ft | 419 kts | 182° |
| 2026-05-04 21:45 | 43.58390 | 2.85542 | 36952 ft | 419 kts | 182° |
| 2026-05-04 21:45 | 43.52566 | 2.85613 | 36954 ft | 419 kts | 183° |
| 2026-05-04 21:46 | 43.46736 | 2.85674 | 36949 ft | 419 kts | 183° |
| 2026-05-04 21:46 | 43.40898 | 2.85763 | 36952 ft | 419 kts | 182° |
| 2026-05-04 21:47 | 43.35101 | 2.85853 | 36950 ft | 420 kts | 183° |
| 2026-05-04 21:47 | 43.29255 | 2.85933 | 36944 ft | 420 kts | 183° |
| 2026-05-04 21:48 | 43.23411 | 2.86010 | 36941 ft | 420 kts | 183° |
| 2026-05-04 21:48 | 43.17563 | 2.86089 | 36941 ft | 421 kts | 183° |
| 2026-05-04 21:49 | 43.11716 | 2.86182 | 36635 ft | 419 kts | 182° |
| 2026-05-04 21:49 | 43.08792 | 2.86229 | 35942 ft | 419 kts | 183° |
| 2026-05-04 21:49 | 43.05878 | 2.86273 | 35259 ft | 419 kts | 182° |
| 2026-05-04 21:49 | 43.02964 | 2.86315 | 34587 ft | 419 kts | 182° |
| 2026-05-04 21:50 | 43.00049 | 2.86353 | 33909 ft | 418 kts | 182° |
| 2026-05-04 21:50 | 42.97122 | 2.86391 | 33027 ft | 420 kts | 182° |
| 2026-05-04 21:50 | 42.94204 | 2.86429 | 32217 ft | 420 kts | 182° |
| 2026-05-04 21:50 | 42.91274 | 2.86468 | 31360 ft | 422 kts | 182° |
| 2026-05-04 21:51 | 42.88340 | 2.86510 | 30612 ft | 421 kts | 182° |
| 2026-05-04 21:51 | 42.85427 | 2.86555 | 29996 ft | 416 kts | 182° |
| 2026-05-04 21:51 | 42.82545 | 2.86599 | 29278 ft | 412 kts | 182° |
| 2026-05-04 21:51 | 42.79693 | 2.86642 | 28579 ft | 408 kts | 182° |
| 2026-05-04 21:52 | 42.76863 | 2.86684 | 27910 ft | 405 kts | 182° |
| 2026-05-04 21:52 | 42.74066 | 2.86606 | 27258 ft | 399 kts | 187° |
| 2026-05-04 21:52 | 42.71308 | 2.86283 | 26606 ft | 396 kts | 187° |
| 2026-05-04 21:52 | 42.68573 | 2.85961 | 25972 ft | 393 kts | 187° |
| 2026-05-04 21:53 | 42.65866 | 2.85645 | 25533 ft | 385 kts | 186° |
| 2026-05-04 21:53 | 42.63218 | 2.85335 | 25086 ft | 379 kts | 187° |
| 2026-05-04 21:53 | 42.60611 | 2.85027 | 24556 ft | 375 kts | 187° |
| 2026-05-04 21:53 | 42.58021 | 2.84719 | 24008 ft | 372 kts | 186° |
| 2026-05-04 21:54 | 42.55446 | 2.84416 | 23443 ft | 370 kts | 186° |
| 2026-05-04 21:54 | 42.52893 | 2.84121 | 22842 ft | 367 kts | 186° |
| 2026-05-04 21:54 | 42.50357 | 2.83825 | 22271 ft | 364 kts | 186° |
| 2026-05-04 21:54 | 42.47845 | 2.83531 | 21729 ft | 361 kts | 187° |
| 2026-05-04 21:55 | 42.45356 | 2.83229 | 21193 ft | 357 kts | 188° |
| 2026-05-04 21:55 | 42.42916 | 2.82661 | 20667 ft | 354 kts | 192° |
| 2026-05-04 21:55 | 42.40504 | 2.82059 | 20169 ft | 351 kts | 192° |
| 2026-05-04 21:55 | 42.38105 | 2.81463 | 19694 ft | 349 kts | 192° |
| 2026-05-04 21:56 | 42.35728 | 2.80881 | 19227 ft | 346 kts | 192° |
| 2026-05-04 21:56 | 42.33364 | 2.80304 | 18763 ft | 344 kts | 192° |
| 2026-05-04 21:56 | 42.31010 | 2.79730 | 18307 ft | 342 kts | 192° |
| 2026-05-04 21:56 | 42.28680 | 2.79160 | 17807 ft | 340 kts | 192° |
| 2026-05-04 21:57 | 42.26392 | 2.78599 | 17316 ft | 338 kts | 192° |
| 2026-05-04 21:57 | 42.24084 | 2.78035 | 16826 ft | 336 kts | 192° |
| 2026-05-04 21:57 | 42.21793 | 2.77474 | 16350 ft | 334 kts | 192° |
| 2026-05-04 21:57 | 42.19514 | 2.76916 | 15884 ft | 332 kts | 192° |
| 2026-05-04 21:58 | 42.17249 | 2.76359 | 15421 ft | 330 kts | 193° |
| 2026-05-04 21:58 | 42.15053 | 2.75528 | 14953 ft | 326 kts | 203° |
| 2026-05-04 21:58 | 42.13045 | 2.74157 | 14507 ft | 323 kts | 214° |
| 2026-05-04 21:58 | 42.11283 | 2.72308 | 14056 ft | 320 kts | 224° |
| 2026-05-04 21:59 | 42.09610 | 2.70346 | 13601 ft | 320 kts | 213° |
| 2026-05-04 21:59 | 42.07552 | 2.69201 | 13078 ft | 321 kts | 201° |
| 2026-05-04 21:59 | 42.05443 | 2.68230 | 12573 ft | 320 kts | 201° |
| 2026-05-04 21:59 | 42.03341 | 2.67248 | 12091 ft | 319 kts | 201° |
| 2026-05-04 22:00 | 42.01253 | 2.66253 | 11586 ft | 318 kts | 202° |
| 2026-05-04 22:00 | 41.99177 | 2.65247 | 11111 ft | 316 kts | 202° |
| 2026-05-04 22:00 | 41.97110 | 2.64233 | 10639 ft | 315 kts | 202° |
| 2026-05-04 22:00 | 41.95053 | 2.63216 | 10172 ft | 315 kts | 202° |
| 2026-05-04 22:01 | 41.93011 | 2.62207 | 9856 ft | 308 kts | 202° |
| 2026-05-04 22:01 | 41.91040 | 2.61241 | 9725 ft | 295 kts | 202° |
| 2026-05-04 22:01 | 41.89147 | 2.60318 | 9567 ft | 284 kts | 202° |
| 2026-05-04 22:01 | 41.87307 | 2.59418 | 9238 ft | 280 kts | 202° |
| 2026-05-04 22:02 | 41.85488 | 2.58526 | 8849 ft | 278 kts | 202° |
| 2026-05-04 22:02 | 41.83676 | 2.57634 | 8472 ft | 277 kts | 202° |
| 2026-05-04 22:02 | 41.81872 | 2.56750 | 8095 ft | 275 kts | 202° |
| 2026-05-04 22:02 | 41.80077 | 2.55870 | 7711 ft | 275 kts | 202° |
| 2026-05-04 22:03 | 41.78287 | 2.54994 | 7332 ft | 273 kts | 203° |
| 2026-05-04 22:03 | 41.76505 | 2.54124 | 6959 ft | 272 kts | 202° |
| 2026-05-04 22:03 | 41.74733 | 2.53259 | 6574 ft | 271 kts | 202° |
| 2026-05-04 22:03 | 41.72966 | 2.52401 | 6180 ft | 269 kts | 202° |
| 2026-05-04 22:04 | 41.71214 | 2.51552 | 5983 ft | 267 kts | 202° |
| 2026-05-04 22:04 | 41.69461 | 2.50700 | 5984 ft | 268 kts | 202° |
| 2026-05-04 22:04 | 41.67704 | 2.49844 | 5986 ft | 269 kts | 202° |
| 2026-05-04 22:04 | 41.65948 | 2.48985 | 5986 ft | 269 kts | 202° |
| 2026-05-04 22:05 | 41.64191 | 2.48130 | 5996 ft | 269 kts | 202° |
| 2026-05-04 22:05 | 41.62433 | 2.47278 | 5996 ft | 269 kts | 202° |
| 2026-05-04 22:05 | 41.60675 | 2.46425 | 5998 ft | 269 kts | 202° |
| 2026-05-04 22:05 | 41.58925 | 2.45576 | 5926 ft | 267 kts | 202° |
| 2026-05-04 22:06 | 41.57183 | 2.44731 | 5491 ft | 265 kts | 202° |
| 2026-05-04 22:06 | 41.55450 | 2.43891 | 5061 ft | 265 kts | 202° |
| 2026-05-04 22:06 | 41.54307 | 2.43338 | 4778 ft | 264 kts | 202° |
| 2026-05-04 22:06 | 41.52583 | 2.42503 | 4342 ft | 263 kts | 202° |
| 2026-05-04 22:07 | 41.50873 | 2.41678 | 3927 ft | 261 kts | 202° |
| 2026-05-04 22:07 | 41.48613 | 2.40588 | 3364 ft | 259 kts | 202° |
| 2026-05-04 22:07 | 41.46921 | 2.39770 | 3028 ft | 257 kts | 202° |
| 2026-05-04 22:07 | 41.45239 | 2.38958 | 2993 ft | 258 kts | 202° |
| 2026-05-04 22:08 | 41.44097 | 2.38406 | 3000 ft | 259 kts | 202° |
| 2026-05-04 22:08 | 41.42425 | 2.37510 | 2996 ft | 257 kts | 211° |
| 2026-05-04 22:08 | 41.40910 | 2.36260 | 3006 ft | 256 kts | 214° |
| 2026-05-04 22:08 | 41.39396 | 2.34999 | 3012 ft | 257 kts | 214° |
| 2026-05-04 22:09 | 41.37881 | 2.33743 | 3005 ft | 256 kts | 214° |
| 2026-05-04 22:09 | 41.36363 | 2.32488 | 3005 ft | 257 kts | 214° |
| 2026-05-04 22:09 | 41.34849 | 2.31233 | 2995 ft | 257 kts | 214° |
| 2026-05-04 22:09 | 41.33336 | 2.29969 | 3012 ft | 257 kts | 214° |
| 2026-05-04 22:10 | 41.31824 | 2.28703 | 3013 ft | 257 kts | 214° |
| 2026-05-04 22:10 | 41.30310 | 2.27440 | 3014 ft | 257 kts | 214° |
| 2026-05-04 22:10 | 41.28793 | 2.26176 | 3010 ft | 257 kts | 214° |
| 2026-05-04 22:10 | 41.27278 | 2.24912 | 3010 ft | 257 kts | 214° |
| 2026-05-04 22:11 | 41.25783 | 2.23665 | 3010 ft | 257 kts | 214° |
| 2026-05-04 22:11 | 41.24267 | 2.22402 | 3007 ft | 257 kts | 214° |
| 2026-05-04 22:11 | 41.22751 | 2.21142 | 3010 ft | 257 kts | 214° |
| 2026-05-04 22:11 | 41.21234 | 2.19881 | 3008 ft | 257 kts | 214° |
| 2026-05-04 22:12 | 41.19722 | 2.18622 | 3007 ft | 257 kts | 214° |
| 2026-05-04 22:12 | 41.18190 | 2.17347 | 3004 ft | 256 kts | 214° |
| 2026-05-04 22:12 | 41.16678 | 2.16090 | 3001 ft | 256 kts | 214° |
| 2026-05-04 22:12 | 41.15168 | 2.14835 | 3003 ft | 256 kts | 214° |
| 2026-05-04 22:13 | 41.13680 | 2.13598 | 2980 ft | 255 kts | 214° |
| 2026-05-04 22:13 | 41.12164 | 2.12342 | 2633 ft | 253 kts | 214° |
| 2026-05-04 22:13 | 41.10726 | 2.11074 | 2203 ft | 250 kts | 223° |
| 2026-05-04 22:13 | 41.09797 | 2.09209 | 1920 ft | 240 kts | 255° |
| 2026-05-04 22:14 | 41.09770 | 2.07095 | 1791 ft | 227 kts | 286° |
| 2026-05-04 22:14 | 41.10594 | 2.05394 | 1661 ft | 218 kts | 320° |
| 2026-05-04 22:14 | 41.11928 | 2.04633 | 1564 ft | 205 kts | 347° |
| 2026-05-04 22:14 | 41.13318 | 2.04382 | 1494 ft | 197 kts | 351° |
| 2026-05-04 22:15 | 41.14635 | 2.04212 | 1525 ft | 182 kts | 352° |
| 2026-05-04 22:15 | 41.15856 | 2.04062 | 1510 ft | 177 kts | 352° |
| 2026-05-04 22:15 | 41.17057 | 2.03922 | 1504 ft | 165 kts | 352° |
| 2026-05-04 22:15 | 41.18143 | 2.03804 | 1509 ft | 151 kts | 354° |
| 2026-05-04 22:16 | 41.19139 | 2.04120 | 1525 ft | 146 kts | 23° |
| 2026-05-04 22:16 | 41.20079 | 2.04567 | 1503 ft | 142 kts | 14° |
| 2026-05-04 22:16 | 41.21019 | 2.04971 | 1501 ft | 142 kts | 15° |
| 2026-05-04 22:16 | 41.21953 | 2.05385 | 1410 ft | 141 kts | 15° |
| 2026-05-04 22:17 | 41.22880 | 2.05801 | 1247 ft | 140 kts | 16° |
| 2026-05-04 22:17 | 41.23805 | 2.06220 | 1081 ft | 139 kts | 16° |
| 2026-05-04 22:17 | 41.24720 | 2.06635 | 896 ft | 139 kts | 17° |
| 2026-05-04 22:17 | 41.25628 | 2.07045 | 718 ft | 137 kts | 17° |
| 2026-05-04 22:18 | 41.26519 | 2.07452 | 516 ft | 134 kts | 16° |
| 2026-05-04 22:18 | 41.27398 | 2.07852 | 353 ft | 133 kts | 18° |
| 2026-05-04 22:18 | 41.28269 | 2.08252 | 161 ft | 132 kts | 17° |
| 2026-05-04 22:18 | 41.29129 | 2.08649 | 17 ft | 128 kts | 19° |
| 2026-05-04 22:19 | 41.29838 | 2.08965 | 20 ft | 83 kts | 19° |
| 2026-05-04 22:19 | 41.30295 | 2.09180 | 17 ft | 48 kts | 22° |
| 2026-05-04 22:19 | 41.30529 | 2.09278 | 23 ft | 28 kts | 4° |
| 2026-05-04 22:19 | 41.30669 | 2.09176 | 23 ft | 11 kts | 307° |
| 2026-05-04 22:20 | 41.30673 | 2.09167 | 23 ft | 0 kts | 300° |
| 2026-05-04 22:21 | 41.30681 | 2.09139 | 22 ft | 9 kts | 285° |
| 2026-05-04 22:22 | 41.30657 | 2.09063 | 21 ft | 1 kts | 217° |
| 2026-05-04 22:22 | 41.30636 | 2.09055 | 22 ft | 5 kts | 197° |
| 2026-05-04 22:22 | 41.30588 | 2.09041 | 21 ft | 11 kts | 192° |
| 2026-05-04 22:22 | 41.30490 | 2.09000 | 21 ft | 16 kts | 199° |
| 2026-05-04 22:23 | 41.30378 | 2.08950 | 18 ft | 18 kts | 201° |
| 2026-05-04 22:23 | 41.30321 | 2.08890 | 19 ft | 0 kts | 241° |
| 2026-05-04 22:23 | 41.30347 | 2.08884 | 18 ft | 10 kts | 350° |
| 2026-05-04 22:23 | 41.30369 | 2.08851 | 18 ft | 1 kts | 277° |
| 2026-05-04 22:24 | 41.30352 | 2.08797 | 20 ft | 12 kts | 241° |
| 2026-05-04 22:24 | 41.30301 | 2.08652 | 19 ft | 18 kts | 248° |
| 2026-05-04 22:24 | 41.30258 | 2.08508 | 20 ft | 12 kts | 251° |
| 2026-05-04 22:24 | 41.30301 | 2.08434 | 20 ft | 7 kts | 334° |
| 2026-05-04 22:25 | 41.30311 | 2.08409 | 20 ft | 6 kts | 289° |
| 2026-05-04 22:25 | 41.30342 | 2.08321 | 19 ft | 8 kts | 302° |
| 2026-05-04 22:25 | 41.30346 | 2.08308 | 22 ft | 0 kts | 291° |